createdAt,value
2023-04-16T00:01:43.997Z,76.90
2023-04-16T00:04:45.892Z,76.60
2023-04-16T00:07:47.819Z,76.50
2023-04-16T00:10:49.484Z,76.50
2023-04-16T00:13:51.133Z,76.70
2023-04-16T00:16:53.118Z,76.90
2023-04-16T00:19:54.808Z,76.80
2023-04-16T00:22:56.445Z,76.90
2023-04-16T00:25:59.986Z,76.70
2023-04-16T00:29:01.912Z,76.50
2023-04-16T00:32:03.682Z,76.40
2023-04-16T00:35:06.009Z,76.40
2023-04-16T00:38:07.648Z,76.40
2023-04-16T00:41:09.297Z,76.60
2023-04-16T00:44:11.021Z,76.50
2023-04-16T00:47:12.976Z,76.50
2023-04-16T00:50:14.676Z,76.40
2023-04-16T00:53:16.297Z,76.50
2023-04-16T00:56:18.111Z,76.70
2023-04-16T00:59:19.931Z,76.60
2023-04-16T01:02:21.641Z,76.50
2023-04-16T01:05:23.337Z,76.20
2023-04-16T01:08:25.107Z,76.30
2023-04-16T01:11:26.807Z,76.30
2023-04-16T01:14:28.504Z,76.30
2023-04-16T01:17:30.398Z,76.50
2023-04-16T01:20:35.780Z,77.00
2023-04-16T01:23:37.576Z,77.40
2023-04-16T01:26:39.363Z,77.70
2023-04-16T01:29:41.156Z,77.70
2023-04-16T01:32:42.820Z,77.50
2023-04-16T01:35:44.557Z,77.30
2023-04-16T01:38:46.454Z,77.00
2023-04-16T01:41:48.159Z,77.10
2023-04-16T01:44:49.811Z,77.10
2023-04-16T01:47:51.626Z,77.20
2023-04-16T01:50:53.315Z,77.20
2023-04-16T01:53:55.518Z,77.40
2023-04-16T01:56:57.558Z,77.50
2023-04-16T01:59:59.189Z,77.50
2023-04-16T02:03:01.003Z,77.60
2023-04-16T02:06:03.040Z,77.80
2023-04-16T02:09:04.676Z,78.10
2023-04-16T02:12:06.707Z,78.10
2023-04-16T02:15:08.774Z,78.00
2023-04-16T02:18:10.436Z,77.80
2023-04-16T02:21:12.064Z,77.70
2023-04-16T02:24:13.826Z,77.70
2023-04-16T02:27:16.803Z,77.80
2023-04-16T02:30:18.512Z,78.00
2023-04-16T02:33:20.320Z,77.90
2023-04-16T02:36:22.233Z,78.10
2023-04-16T02:39:23.958Z,78.10
2023-04-16T02:42:28.677Z,77.90
2023-04-16T02:45:31.600Z,77.70
2023-04-16T02:48:34.600Z,77.60
2023-04-16T02:51:36.231Z,77.60
2023-04-16T02:54:37.887Z,77.50
2023-04-16T02:57:39.656Z,77.50
2023-04-16T03:00:41.325Z,77.50
2023-04-16T03:03:42.962Z,77.50
2023-04-16T03:06:44.875Z,77.40
2023-04-16T03:09:46.808Z,77.40
2023-04-16T03:12:48.484Z,77.20
2023-04-16T03:15:50.380Z,77.10
2023-04-16T03:18:52.227Z,77.00
2023-04-16T03:21:53.847Z,77.00
2023-04-16T03:24:55.518Z,77.20
2023-04-16T03:27:57.373Z,77.20
2023-04-16T03:30:59.074Z,77.20
2023-04-16T03:34:00.846Z,77.20
2023-04-16T03:37:02.680Z,77.20
2023-04-16T03:40:07.508Z,77.10
2023-04-16T03:43:09.148Z,77.30
2023-04-16T03:46:11.237Z,77.20
2023-04-16T03:49:12.937Z,77.10
2023-04-16T03:52:14.614Z,77.10
2023-04-16T03:55:16.368Z,77.20
2023-04-16T03:58:18.586Z,77.30
2023-04-16T04:01:20.264Z,77.50
2023-04-16T04:04:22.070Z,77.50
2023-04-16T04:07:24.024Z,77.50
2023-04-16T04:10:25.793Z,77.30
2023-04-16T04:13:27.430Z,77.30
2023-04-16T04:16:29.309Z,77.50
2023-04-16T04:19:31.080Z,77.40
2023-04-16T04:22:32.774Z,77.50
2023-04-16T04:25:35.352Z,77.70
2023-04-16T04:28:37.142Z,77.70
2023-04-16T04:31:38.847Z,77.90
2023-04-16T04:34:40.504Z,78.00
2023-04-16T04:37:42.156Z,78.10
2023-04-16T04:40:43.791Z,78.00
2023-04-16T04:43:45.416Z,78.00
2023-04-16T04:46:47.342Z,78.00
2023-04-16T04:49:48.993Z,77.90
2023-04-16T04:52:50.904Z,78.20
2023-04-16T04:55:55.698Z,78.30
2023-04-16T04:59:00.591Z,78.30
2023-04-16T05:02:03.395Z,78.30
2023-04-16T05:05:05.774Z,78.30
2023-04-16T05:08:07.823Z,78.40
2023-04-16T05:11:09.537Z,78.40
2023-04-16T05:14:11.391Z,78.40
2023-04-16T05:17:13.385Z,78.30
2023-04-16T05:20:15.010Z,78.40
2023-04-16T05:23:16.717Z,78.50
2023-04-16T05:26:18.680Z,78.60
2023-04-16T05:29:20.431Z,78.60
2023-04-16T05:32:22.535Z,78.60
2023-04-16T05:35:24.208Z,78.60
2023-04-16T05:38:25.932Z,78.60
2023-04-16T05:41:27.586Z,78.40
2023-04-16T05:44:29.225Z,78.20
2023-04-16T05:47:31.063Z,78.20
2023-04-16T05:50:32.749Z,78.00
2023-04-16T05:53:34.443Z,77.90
2023-04-16T05:56:36.386Z,77.90
2023-04-16T05:59:38.011Z,77.90
2023-04-16T06:02:39.864Z,77.90
2023-04-16T06:05:41.649Z,77.90
2023-04-16T06:08:43.569Z,77.80
2023-04-16T06:11:45.507Z,77.70
2023-04-16T06:14:47.216Z,77.60
2023-04-16T06:17:49.811Z,77.40
2023-04-16T06:20:51.510Z,77.30
2023-04-16T06:23:54.134Z,77.20
2023-04-16T06:26:59.006Z,77.00
2023-04-16T06:30:00.888Z,76.60
2023-04-16T06:33:02.621Z,76.40
2023-04-16T06:36:05.587Z,76.20
2023-04-16T06:39:09.939Z,76.00
2023-04-16T06:42:11.998Z,75.70
2023-04-16T06:45:16.828Z,75.40
2023-04-16T06:48:18.475Z,75.10
2023-04-16T06:51:20.626Z,74.90
2023-04-16T06:54:22.326Z,74.60
2023-04-16T06:57:24.115Z,74.40
2023-04-16T07:00:25.937Z,74.10
2023-04-16T07:03:27.773Z,73.90
2023-04-16T07:06:29.664Z,73.50
2023-04-16T07:09:31.395Z,73.20
2023-04-16T07:12:33.302Z,73.00
2023-04-16T07:15:34.940Z,72.70
2023-04-16T07:18:36.864Z,72.30
2023-04-16T07:21:38.934Z,72.00
2023-04-16T07:24:40.653Z,71.80
2023-04-16T07:27:42.416Z,71.50
2023-04-16T07:30:44.053Z,71.30
2023-04-16T07:33:45.686Z,71.00
2023-04-16T07:36:47.376Z,70.60
2023-04-16T07:39:49.074Z,70.30
2023-04-16T07:42:51.000Z,70.00
2023-04-16T07:45:52.717Z,69.80
2023-04-16T07:48:54.383Z,69.40
2023-04-16T07:51:56.038Z,69.00
2023-04-16T07:54:57.661Z,68.40
2023-04-16T07:57:59.577Z,67.90
2023-04-16T08:01:01.392Z,67.60
2023-04-16T08:04:03.256Z,67.30
2023-04-16T08:07:05.184Z,67.00
2023-04-16T08:10:07.452Z,66.70
2023-04-16T08:13:09.123Z,66.40
2023-04-16T08:16:11.142Z,65.80
2023-04-16T08:19:12.985Z,65.60
2023-04-16T08:22:14.942Z,65.30
2023-04-16T08:25:16.691Z,65.10
2023-04-16T08:28:18.479Z,64.70
2023-04-16T08:31:20.382Z,64.50
2023-04-16T08:34:22.207Z,64.20
2023-04-16T08:37:23.914Z,64.00
2023-04-16T08:40:26.909Z,63.80
2023-04-16T08:43:29.301Z,63.60
2023-04-16T08:46:32.233Z,63.70
2023-04-16T08:49:33.889Z,63.50
2023-04-16T08:52:36.022Z,63.40
2023-04-16T08:55:41.135Z,63.30
2023-04-16T08:58:42.946Z,63.20
2023-04-16T09:01:45.472Z,62.90
2023-04-16T09:04:47.296Z,62.80
2023-04-16T09:07:49.172Z,62.50
2023-04-16T09:10:50.817Z,62.20
2023-04-16T09:13:52.520Z,62.00
2023-04-16T09:16:55.658Z,61.90
2023-04-16T09:19:57.350Z,61.70
2023-04-16T09:22:58.978Z,61.40
2023-04-16T09:26:00.863Z,61.00
2023-04-16T09:29:02.706Z,60.60
2023-04-16T09:32:08.651Z,60.10
2023-04-16T09:35:10.454Z,59.70
2023-04-16T09:38:12.262Z,59.50
2023-04-16T09:41:16.260Z,59.20
2023-04-16T09:44:17.911Z,59.20
2023-04-16T09:47:20.121Z,58.80
2023-04-16T09:50:21.882Z,58.40
2023-04-16T09:53:30.681Z,58.00
2023-04-16T09:56:32.532Z,57.70
2023-04-16T09:59:35.783Z,57.60
2023-04-16T10:02:41.771Z,57.50
2023-04-16T10:05:43.833Z,57.00
2023-04-16T10:08:52.572Z,57.00
2023-04-16T10:11:54.205Z,56.80
2023-04-16T10:14:55.969Z,56.80
2023-04-16T10:18:00.147Z,56.60
2023-04-16T10:21:01.900Z,56.50
2023-04-16T10:24:03.688Z,56.50
2023-04-16T10:27:05.757Z,56.40
2023-04-16T10:30:08.459Z,56.20
2023-04-16T10:33:10.137Z,56.00
2023-04-16T10:36:16.122Z,55.80
2023-04-16T10:39:22.483Z,55.50
2023-04-16T10:42:24.143Z,55.20
2023-04-16T10:45:32.869Z,55.00
2023-04-16T10:48:46.761Z,55.10
2023-04-16T10:51:55.143Z,55.10
2023-04-16T10:54:56.779Z,55.00
2023-04-16T10:57:58.772Z,55.00
2023-04-16T11:01:01.209Z,55.00
2023-04-16T11:04:21.565Z,54.80
2023-04-16T11:07:45.316Z,54.60
2023-04-16T11:10:46.980Z,54.60
2023-04-16T11:13:48.621Z,54.60
2023-04-16T11:16:50.669Z,54.50
2023-04-16T11:19:53.551Z,54.40
2023-04-16T11:22:56.488Z,54.00
2023-04-16T11:25:59.219Z,53.50
2023-04-16T11:29:00.974Z,53.20
2023-04-16T11:32:02.630Z,52.90
2023-04-16T11:35:12.635Z,52.60
2023-04-16T11:38:14.377Z,52.20
2023-04-16T11:41:22.260Z,51.90
2023-04-16T11:44:25.278Z,51.50
2023-04-16T11:47:27.279Z,51.40
2023-04-16T11:50:29.096Z,51.10
2023-04-16T11:53:30.935Z,51.00
2023-04-16T11:56:35.149Z,50.90
2023-04-16T11:59:37.218Z,50.50
2023-04-16T12:02:58.987Z,50.30
2023-04-16T12:06:07.748Z,50.50
2023-04-16T12:09:25.298Z,50.30
2023-04-16T12:12:28.042Z,50.10
2023-04-16T12:15:46.686Z,50.10
2023-04-16T12:19:23.061Z,49.70
2023-04-16T12:22:36.752Z,49.50
2023-04-16T12:25:42.665Z,49.30
2023-04-16T12:28:44.518Z,49.20
2023-04-16T12:31:46.769Z,49.20
2023-04-16T12:34:51.633Z,49.10
2023-04-16T12:37:53.280Z,48.80
2023-04-16T12:40:56.969Z,48.40
2023-04-16T12:44:11.831Z,48.20
2023-04-16T12:47:13.494Z,48.40
2023-04-16T12:50:15.302Z,48.20
2023-04-16T12:53:16.940Z,48.00
2023-04-16T12:56:18.622Z,47.70
2023-04-16T12:59:20.345Z,47.20
2023-04-16T13:02:22.582Z,47.00
2023-04-16T13:05:24.317Z,46.60
2023-04-16T13:08:26.096Z,46.50
2023-04-16T13:11:27.800Z,46.30
2023-04-16T13:14:29.430Z,46.00
2023-04-16T13:17:31.411Z,46.00
2023-04-16T13:20:33.480Z,46.00
2023-04-16T13:23:35.576Z,46.10
2023-04-16T13:26:37.341Z,46.00
2023-04-16T13:29:39.010Z,45.90
2023-04-16T13:32:41.134Z,45.60
2023-04-16T13:35:42.924Z,45.80
2023-04-16T13:38:44.780Z,45.90
2023-04-16T13:41:47.509Z,45.90
2023-04-16T13:44:52.959Z,46.10
2023-04-16T13:47:55.615Z,46.50
2023-04-16T13:50:57.300Z,46.60
2023-04-16T13:53:59.009Z,46.80
2023-04-16T13:57:00.813Z,46.70
2023-04-16T14:00:03.345Z,46.90
2023-04-16T14:03:06.894Z,46.80
2023-04-16T14:06:08.881Z,46.70
2023-04-16T14:09:10.903Z,46.30
2023-04-16T14:12:12.911Z,46.10
2023-04-16T14:15:14.937Z,46.00
2023-04-16T14:18:16.961Z,45.80
2023-04-16T14:21:18.700Z,45.70
2023-04-16T14:24:20.363Z,45.40
2023-04-16T14:27:22.255Z,45.40
2023-04-16T14:30:23.894Z,45.20
2023-04-16T14:33:25.565Z,45.10
2023-04-16T14:36:27.589Z,45.10
2023-04-16T14:39:29.582Z,45.10
2023-04-16T14:42:31.236Z,45.00
2023-04-16T14:45:32.899Z,44.80
2023-04-16T14:48:34.698Z,44.60
2023-04-16T14:51:37.301Z,44.80
2023-04-16T14:54:38.934Z,44.60
2023-04-16T14:57:44.805Z,44.50
2023-04-16T15:00:46.446Z,44.80
2023-04-16T15:03:48.276Z,45.00
2023-04-16T15:06:50.474Z,45.30
2023-04-16T15:09:52.245Z,45.40
2023-04-16T15:12:53.863Z,45.60
2023-04-16T15:15:55.609Z,45.60
2023-04-16T15:18:57.446Z,45.50
2023-04-16T15:21:59.461Z,45.70
2023-04-16T15:25:01.219Z,45.90
2023-04-16T15:28:02.914Z,46.10
2023-04-16T15:31:04.573Z,46.20
2023-04-16T15:34:06.244Z,46.30
2023-04-16T15:37:08.315Z,46.40
2023-04-16T15:40:10.723Z,46.50
2023-04-16T15:43:12.399Z,46.70
2023-04-16T15:46:15.601Z,46.70
2023-04-16T15:49:17.480Z,46.90
2023-04-16T15:52:20.759Z,46.90
2023-04-16T15:55:22.560Z,47.00
2023-04-16T15:58:24.318Z,47.10
2023-04-16T16:01:26.457Z,47.40
2023-04-16T16:04:28.316Z,47.50
2023-04-16T16:07:30.346Z,47.50
2023-04-16T16:10:32.028Z,47.50
2023-04-16T16:13:33.786Z,47.30
2023-04-16T16:16:35.599Z,47.10
2023-04-16T16:19:37.401Z,46.90
2023-04-16T16:22:39.280Z,46.80
2023-04-16T16:25:42.108Z,46.50
2023-04-16T16:28:44.697Z,45.90
2023-04-16T16:31:46.464Z,45.60
2023-04-16T16:34:48.706Z,45.60
2023-04-16T16:37:55.387Z,45.60
2023-04-16T16:40:57.111Z,45.50
2023-04-16T16:43:59.020Z,45.70
2023-04-16T16:47:00.956Z,45.70
2023-04-16T16:50:03.282Z,45.80
2023-04-16T16:53:05.393Z,46.10
2023-04-16T16:56:07.102Z,46.20
2023-04-16T16:59:09.055Z,46.70
2023-04-16T17:02:11.026Z,47.00
2023-04-16T17:05:12.819Z,47.10
2023-04-16T17:08:15.015Z,47.10
2023-04-16T17:11:16.840Z,46.60
2023-04-16T17:14:18.905Z,46.20
2023-04-16T17:17:20.946Z,46.20
2023-04-16T17:20:22.658Z,46.10
2023-04-16T17:23:24.424Z,46.30
2023-04-16T17:26:27.207Z,46.70
2023-04-16T17:29:29.621Z,46.80
2023-04-16T17:32:34.372Z,46.60
2023-04-16T17:35:36.072Z,46.70
2023-04-16T17:38:37.842Z,47.50
2023-04-16T17:41:39.489Z,48.00
2023-04-16T17:44:41.588Z,48.70
2023-04-16T17:47:44.474Z,49.20
2023-04-16T17:50:46.194Z,49.50
2023-04-16T17:53:47.949Z,49.70
2023-04-16T17:56:49.646Z,50.00
2023-04-16T17:59:51.302Z,50.30
2023-04-16T18:02:53.096Z,50.30
2023-04-16T18:05:54.992Z,50.60
2023-04-16T18:08:56.754Z,50.90
2023-04-16T18:11:58.438Z,51.20
2023-04-16T18:15:00.171Z,51.30
2023-04-16T18:18:02.077Z,51.50
2023-04-16T18:21:03.875Z,51.60
2023-04-16T18:24:06.627Z,51.70
2023-04-16T18:27:08.580Z,51.80
2023-04-16T18:30:20.157Z,52.00
2023-04-16T18:33:38.832Z,52.20
2023-04-16T18:36:46.124Z,52.20
2023-04-16T18:39:47.907Z,52.40
2023-04-16T18:42:49.716Z,52.60
2023-04-16T18:45:51.698Z,52.60
2023-04-16T18:48:53.481Z,52.80
2023-04-16T18:51:57.921Z,52.90
2023-04-16T18:54:59.562Z,53.00
2023-04-16T18:58:01.341Z,53.20
2023-04-16T19:01:03.753Z,53.30
2023-04-16T19:04:05.569Z,53.40
2023-04-16T19:07:07.523Z,53.60
2023-04-16T19:10:09.534Z,53.70
2023-04-16T19:13:11.192Z,53.80
2023-04-16T19:16:13.153Z,54.00
2023-04-16T19:19:18.021Z,54.00
2023-04-16T19:22:19.707Z,54.00
2023-04-16T19:25:21.387Z,54.10
2023-04-16T19:28:24.004Z,54.20
2023-04-16T19:31:26.501Z,54.30
2023-04-16T19:34:28.180Z,54.40
2023-04-16T19:37:29.844Z,54.70
2023-04-16T19:40:31.478Z,54.70
2023-04-16T19:43:33.170Z,55.00
2023-04-16T19:46:34.857Z,55.10
2023-04-16T19:49:36.632Z,55.40
2023-04-16T19:52:38.920Z,55.70
2023-04-16T19:55:41.189Z,55.80
2023-04-16T19:58:42.951Z,56.10
2023-04-16T20:01:44.921Z,56.20
2023-04-16T20:04:48.391Z,56.40
2023-04-16T20:07:52.611Z,56.60
2023-04-16T20:10:54.519Z,56.70
2023-04-16T20:14:00.103Z,56.90
2023-04-16T20:17:02.292Z,57.20
2023-04-16T20:20:10.947Z,57.40
2023-04-16T20:23:13.057Z,57.70
2023-04-16T20:26:19.246Z,57.90
2023-04-16T20:29:21.015Z,58.10
2023-04-16T20:32:22.775Z,58.20
2023-04-16T20:35:24.513Z,58.30
2023-04-16T20:38:26.198Z,58.50
2023-04-16T20:41:30.111Z,58.70
2023-04-16T20:44:40.235Z,58.90
2023-04-16T20:47:43.505Z,59.00
2023-04-16T20:50:45.371Z,59.00
2023-04-16T20:53:47.074Z,59.20
2023-04-16T20:56:50.291Z,59.40
2023-04-16T20:59:51.960Z,59.50
2023-04-16T21:02:53.829Z,59.60
2023-04-16T21:05:55.735Z,59.70
2023-04-16T21:08:57.426Z,59.70
2023-04-16T21:12:01.480Z,59.80
2023-04-16T21:15:04.071Z,59.90
2023-04-16T21:18:06.289Z,60.10
2023-04-16T21:21:07.946Z,60.30
2023-04-16T21:24:09.582Z,60.40
2023-04-16T21:27:11.608Z,60.50
2023-04-16T21:30:13.879Z,60.70
2023-04-16T21:33:16.610Z,60.80
2023-04-16T21:36:18.297Z,60.90
2023-04-16T21:39:21.573Z,61.10
2023-04-16T21:42:23.154Z,61.30
2023-04-16T21:45:24.721Z,61.30
2023-04-16T21:48:27.036Z,61.30
2023-04-16T21:51:31.473Z,61.30
2023-04-16T21:54:33.122Z,61.30
2023-04-16T21:57:35.993Z,61.30
2023-04-16T22:00:37.697Z,61.50
2023-04-16T22:03:40.471Z,61.50
2023-04-16T22:06:46.147Z,61.60
2023-04-16T22:09:47.827Z,61.70
2023-04-16T22:12:49.482Z,61.80
2023-04-16T22:15:51.394Z,61.90
2023-04-16T22:18:54.900Z,62.20
2023-04-16T22:21:56.776Z,62.20
2023-04-16T22:24:58.506Z,62.20
2023-04-16T22:28:01.537Z,62.40
2023-04-16T22:31:03.368Z,62.60
2023-04-16T22:34:05.027Z,62.60
2023-04-16T22:37:08.088Z,62.70
2023-04-16T22:40:11.358Z,62.80
2023-04-16T22:43:13.016Z,63.00
2023-04-16T22:46:14.770Z,63.00
2023-04-16T22:49:16.499Z,63.00
2023-04-16T22:52:18.202Z,63.00
2023-04-16T22:55:19.995Z,63.10
2023-04-16T22:58:21.881Z,63.30
2023-04-16T23:01:24.080Z,63.30
2023-04-16T23:04:25.804Z,63.50
2023-04-16T23:07:27.578Z,63.70
2023-04-16T23:10:29.204Z,64.00
2023-04-16T23:13:31.447Z,64.10
2023-04-16T23:16:33.356Z,64.20
2023-04-16T23:19:35.040Z,64.40
2023-04-16T23:22:36.677Z,64.50
2023-04-16T23:25:40.548Z,64.50
2023-04-16T23:28:42.410Z,64.70
2023-04-16T23:31:44.076Z,64.70
2023-04-16T23:34:45.909Z,64.80
2023-04-16T23:37:47.822Z,64.80
2023-04-16T23:40:49.580Z,65.00
2023-04-16T23:43:51.226Z,65.20
2023-04-16T23:46:53.043Z,65.20
2023-04-16T23:49:54.792Z,65.20
2023-04-16T23:52:56.448Z,65.20
2023-04-16T23:55:58.197Z,65.30
2023-04-16T23:58:59.853Z,65.60
